Time;durP1;ratioP1;P1;durP2;ratioP2;P2;SDS_P1;SDS_P2;PMS_P1;PMS_P2;Temp;Humidity;BMP_temperature;BMP_pressure;BME280_temperature;BME280_humidity;BME280_pressure;Samples;Min_cycle;Max_cycle;Signal;HPM_P1;HPM_P2
2022/12/29 00:00:09;;;;;;;4.67;4.20;;;8.00;1.00;;;;;;5056061;28;20186;-76
2022/12/29 00:02:35;;;;;;;3.87;3.57;;;8.00;1.00;;;;;;5055886;28;20463;-73
2022/12/29 00:05:01;;;;;;;4.03;3.73;;;8.00;1.00;;;;;;5055224;28;20494;-75
2022/12/29 00:07:26;;;;;;;5.40;4.10;;;8.00;1.00;;;;;;5055693;28;20197;-72
2022/12/29 00:09:52;;;;;;;4.93;3.67;;;8.00;1.00;;;;;;5055110;28;20163;-73
2022/12/29 00:12:18;;;;;;;5.80;5.23;;;8.10;1.00;;;;;;5055813;28;20267;-76
2022/12/29 00:17:27;;;;;;;5.50;5.10;;;8.10;1.00;;;;;;5055714;28;20177;-72
2022/12/29 00:36:39;;;;;;;5.90;5.40;;;8.30;1.00;;;;;;5054499;28;20401;-76
2022/12/29 00:44:51;;;;;;;7.17;6.57;;;8.30;1.00;;;;;;5054251;28;20936;-73
2022/12/29 00:47:17;;;;;;;6.50;6.00;;;8.40;1.00;;;;;;5054491;28;20528;-72
2022/12/29 00:49:42;;;;;;;5.80;5.30;;;8.40;1.00;;;;;;5055217;28;20190;-74
2022/12/29 00:52:11;;;;;;;6.33;5.83;;;8.40;1.00;;;;;;5054049;28;20201;-72
2022/12/29 00:54:39;;;;;;;5.70;5.30;;;8.50;1.00;;;;;;5054218;28;20662;-76
2022/12/29 00:57:06;;;;;;;7.37;6.67;;;8.50;1.00;;;;;;5054988;28;20413;-74
2022/12/29 00:59:35;;;;;;;5.30;4.90;;;8.50;1.00;;;;;;5054950;28;20409;-73
2022/12/29 01:02:03;;;;;;;7.20;6.50;;;8.50;1.00;;;;;;5054615;28;20470;-77
2022/12/29 01:04:29;;;;;;;7.20;6.60;;;8.50;1.00;;;;;;5052525;28;20453;-76
2022/12/29 01:06:55;;;;;;;7.90;5.87;;;8.60;1.00;;;;;;5053592;28;20457;-76
2022/12/29 01:12:07;;;;;;;5.23;4.73;;;8.60;1.00;;;;;;5054605;28;20375;-73
2022/12/29 01:14:32;;;;;;;7.40;6.70;;;8.60;1.00;;;;;;5053832;28;20413;-76
2022/12/29 01:16:58;;;;;;;7.53;6.80;;;8.70;1.00;;;;;;5054760;28;20940;-73
2022/12/29 01:19:24;;;;;;;8.33;7.53;;;8.70;1.00;;;;;;5054547;28;20243;-74
2022/12/29 01:21:50;;;;;;;7.77;7.17;;;8.70;1.00;;;;;;5052833;28;20186;-75
2022/12/29 01:24:17;;;;;;;10.80;7.33;;;8.70;1.00;;;;;;5052823;28;20492;-78
2022/12/29 01:26:43;;;;;;;8.23;7.43;;;8.70;1.00;;;;;;5053128;28;20503;-76
2022/12/29 01:29:09;;;;;;;6.90;6.30;;;8.70;1.00;;;;;;5054386;28;20812;-75
2022/12/29 01:31:35;;;;;;;8.47;7.50;;;8.80;1.00;;;;;;5054531;28;20536;-73
2022/12/29 01:34:01;;;;;;;10.03;7.60;;;8.80;1.00;;;;;;5054071;28;20417;-76
2022/12/29 01:36:27;;;;;;;8.43;7.70;;;8.80;1.00;;;;;;5053575;28;20878;-76
2022/12/29 01:38:53;;;;;;;9.40;7.67;;;8.80;1.00;;;;;;5053209;28;20408;-76
2022/12/29 01:41:18;;;;;;;9.53;8.07;;;8.80;1.00;;;;;;5052355;28;20179;-75
2022/12/29 01:43:50;;;;;;;10.03;6.90;;;8.80;1.00;;;;;;5053769;28;20167;-74
2022/12/29 01:46:34;;;;;;;8.03;7.33;;;8.80;1.00;;;;;;5052359;28;20253;-74
2022/12/29 01:49:08;;;;;;;7.80;7.00;;;8.90;1.00;;;;;;5054037;28;20492;-73
2022/12/29 01:51:46;;;;;;;9.07;8.03;;;8.90;1.00;;;;;;5053944;28;20398;-76
2022/12/29 01:54:36;;;;;;;7.20;6.60;;;8.90;1.00;;;;;;5053626;28;20429;-73
2022/12/29 01:57:07;;;;;;;8.10;7.10;;;8.90;1.00;;;;;;5053902;28;20808;-74
2022/12/29 01:59:36;;;;;;;9.30;7.23;;;8.90;1.00;;;;;;5053623;28;20986;-75
2022/12/29 02:02:02;;;;;;;8.03;6.23;;;8.90;1.00;;;;;;5053334;28;20428;-73
2022/12/29 02:04:31;;;;;;;8.50;7.60;;;9.00;1.00;;;;;;5052867;28;20421;-73
2022/12/29 02:07:14;;;;;;;10.63;7.13;;;9.00;1.00;;;;;;5053599;28;20450;-73
2022/12/29 02:09:41;;;;;;;8.60;7.87;;;9.00;1.00;;;;;;5052349;28;20475;-73
2022/12/29 02:12:07;;;;;;;7.93;7.13;;;9.00;1.00;;;;;;5053561;28;20985;-73
2022/12/29 02:14:32;;;;;;;7.20;6.47;;;8.90;1.00;;;;;;5052587;28;20425;-75
2022/12/29 02:17:12;;;;;;;7.77;7.07;;;9.00;1.00;;;;;;5051515;28;20414;-75
2022/12/29 02:19:56;;;;;;;7.90;7.10;;;9.00;1.00;;;;;;5053566;28;20706;-73
2022/12/29 02:22:47;;;;;;;8.70;7.57;;;9.00;1.00;;;;;;5053389;28;20409;-74
2022/12/29 02:25:21;;;;;;;8.23;7.50;;;9.00;1.00;;;;;;5052505;28;20937;-73
2022/12/29 02:28:08;;;;;;;8.20;7.23;;;9.10;1.00;;;;;;5053388;28;20948;-74
2022/12/29 02:30:47;;;;;;;8.53;7.73;;;9.10;1.00;;;;;;5053162;28;20436;-76
2022/12/29 02:33:16;;;;;;;8.17;7.37;;;9.10;1.00;;;;;;5052810;28;20397;-76
2022/12/29 02:35:47;;;;;;;8.33;7.40;;;9.10;1.00;;;;;;5052226;28;20902;-74
2022/12/29 02:38:31;;;;;;;10.10;7.50;;;9.00;1.00;;;;;;5053311;28;20394;-74
2022/12/29 02:41:03;;;;;;;7.30;6.60;;;9.00;1.00;;;;;;5051835;28;20780;-75
2022/12/29 02:43:41;;;;;;;7.63;6.70;;;9.10;1.00;;;;;;5051845;28;20422;-75
2022/12/29 02:46:32;;;;;;;7.33;6.73;;;9.10;1.00;;;;;;5052241;28;20458;-76
2022/12/29 02:49:20;;;;;;;9.63;7.10;;;9.10;1.00;;;;;;5051316;28;20752;-74
2022/12/29 02:52:15;;;;;;;8.03;7.33;;;9.10;1.00;;;;;;5053013;28;20484;-75
2022/12/29 02:54:41;;;;;;;7.90;6.40;;;9.10;1.00;;;;;;5050499;28;20445;-73
2022/12/29 02:57:12;;;;;;;7.43;6.73;;;9.10;1.00;;;;;;5052724;28;20416;-75
2022/12/29 02:59:39;;;;;;;7.67;6.97;;;9.10;1.00;;;;;;5052965;28;20610;-75
2022/12/29 03:02:20;;;;;;;10.43;7.40;;;9.10;1.00;;;;;;5052920;28;20388;-75
2022/12/29 03:05:19;;;;;;;7.70;7.00;;;9.10;1.00;;;;;;5052200;28;20422;-74
2022/12/29 03:08:18;;;;;;;7.53;6.80;;;9.20;1.00;;;;;;5052779;28;20452;-74
2022/12/29 03:12:07;;;;;;;7.27;6.53;;;9.10;1.00;;;;;;5052687;28;20402;-74
2022/12/29 03:17:10;;;;;;;6.30;5.80;;;9.20;1.00;;;;;;5052369;28;20441;-75
2022/12/29 03:19:40;;;;;;;8.30;6.53;;;9.20;1.00;;;;;;5052792;28;20418;-74
2022/12/29 03:22:27;;;;;;;7.73;6.87;;;9.20;1.00;;;;;;5052708;28;20441;-74
2022/12/29 03:24:59;;;;;;;6.50;6.00;;;9.20;1.00;;;;;;5050794;28;20502;-74
2022/12/29 03:27:51;;;;;;;7.33;6.63;;;9.20;1.00;;;;;;5051171;28;21369;-73
2022/12/29 03:30:17;;;;;;;7.40;6.80;;;9.30;1.00;;;;;;5050985;28;20448;-75
2022/12/29 03:32:57;;;;;;;6.30;5.73;;;9.30;1.00;;;;;;5052413;28;20394;-75
2022/12/29 03:35:25;;;;;;;8.67;6.10;;;9.30;1.00;;;;;;5051672;28;20434;-74
2022/12/29 03:38:15;;;;;;;12.27;9.47;;;9.30;1.00;;;;;;5052622;28;20408;-74
2022/12/29 03:40:44;;;;;;;8.20;7.40;;;9.40;1.00;;;;;;5052552;28;20438;-74
2022/12/29 03:43:11;;;;;;;8.20;7.40;;;9.40;1.00;;;;;;5052467;28;20488;-73
2022/12/29 03:45:37;;;;;;;8.17;6.90;;;9.40;1.00;;;;;;5050584;28;20491;-74
2022/12/29 03:48:03;;;;;;;8.73;7.93;;;9.40;1.00;;;;;;5050845;28;20917;-75
2022/12/29 03:50:28;;;;;;;8.67;7.87;;;9.40;1.00;;;;;;5052101;28;20637;-73
2022/12/29 03:52:54;;;;;;;9.43;8.23;;;9.50;1.00;;;;;;5052449;28;20226;-74
2022/12/29 03:55:20;;;;;;;8.63;7.73;;;9.50;1.00;;;;;;5051636;28;20221;-73
2022/12/29 03:57:46;;;;;;;8.57;7.80;;;9.50;1.00;;;;;;5052321;28;20196;-74
2022/12/29 04:00:13;;;;;;;8.37;7.37;;;9.50;1.00;;;;;;5052604;28;20181;-74
2022/12/29 04:02:39;;;;;;;8.83;7.87;;;9.50;1.00;;;;;;5051013;28;20176;-73
2022/12/29 04:05:05;;;;;;;8.80;7.20;;;9.50;1.00;;;;;;5051420;28;20454;-74
2022/12/29 04:07:31;;;;;;;10.20;8.27;;;9.60;1.00;;;;;;5050409;28;21036;-74
2022/12/29 04:09:56;;;;;;;9.07;8.30;;;9.60;1.00;;;;;;5053150;28;20406;-73
2022/12/29 04:12:22;;;;;;;8.87;7.97;;;9.60;1.00;;;;;;5055852;28;20570;-73
2022/12/29 04:14:48;;;;;;;9.17;8.00;;;9.60;1.00;;;;;;5055109;28;20200;-72
2022/12/29 04:17:14;;;;;;;9.97;7.63;;;9.60;1.00;;;;;;5055743;28;20171;-73
2022/12/29 04:19:39;;;;;;;8.50;7.70;;;9.60;1.00;;;;;;5055633;28;20572;-74
2022/12/29 04:22:05;;;;;;;8.93;7.27;;;9.60;1.00;;;;;;5055074;28;20176;-74
2022/12/29 04:24:31;;;;;;;9.03;8.13;;;9.60;1.00;;;;;;5054702;28;20223;-73
2022/12/29 04:26:56;;;;;;;6.97;6.37;;;9.60;1.00;;;;;;5054436;28;20263;-74
2022/12/29 04:29:22;;;;;;;7.30;6.70;;;9.70;1.00;;;;;;5054304;28;20176;-72
2022/12/29 04:31:48;;;;;;;6.83;6.23;;;9.60;1.00;;;;;;5055467;28;20184;-73
2022/12/29 04:34:13;;;;;;;7.93;7.13;;;9.70;1.00;;;;;;5053915;28;20555;-75
2022/12/29 04:36:39;;;;;;;11.60;7.30;;;9.70;1.00;;;;;;5054922;28;20172;-74
2022/12/29 04:39:06;;;;;;;7.70;6.90;;;9.70;1.00;;;;;;5053433;28;20554;-74
2022/12/29 04:41:31;;;;;;;6.80;6.10;;;9.60;1.00;;;;;;5055361;28;20567;-72
2022/12/29 04:43:57;;;;;;;7.50;6.83;;;9.70;1.00;;;;;;5055027;28;20434;-74
2022/12/29 04:46:23;;;;;;;6.87;6.27;;;9.60;1.00;;;;;;5054467;28;20253;-74
2022/12/29 04:48:49;;;;;;;7.43;6.83;;;9.60;1.00;;;;;;5055177;28;20169;-73
2022/12/29 04:51:14;;;;;;;7.60;6.90;;;9.60;1.00;;;;;;5055104;28;20376;-73
2022/12/29 04:53:41;;;;;;;6.93;6.23;;;9.70;1.00;;;;;;5055114;28;20574;-73
2022/12/29 04:56:06;;;;;;;10.23;6.67;;;9.70;1.00;;;;;;5054307;28;20733;-74
2022/12/29 04:58:32;;;;;;;7.03;6.43;;;9.70;1.00;;;;;;5054314;28;20486;-73
2022/12/29 05:00:58;;;;;;;7.20;6.30;;;9.70;1.00;;;;;;5053973;28;20178;-72
2022/12/29 05:03:23;;;;;;;6.87;6.27;;;9.70;1.00;;;;;;5054862;28;20171;-72
2022/12/29 05:05:49;;;;;;;6.63;6.03;;;9.70;1.00;;;;;;5054049;28;20664;-73
2022/12/29 05:08:15;;;;;;;7.13;6.43;;;9.70;1.00;;;;;;5054730;28;20645;-73
2022/12/29 05:10:44;;;;;;;8.17;7.47;;;9.70;1.00;;;;;;5054747;28;20194;-74
2022/12/29 05:13:10;;;;;;;6.70;6.20;;;9.70;1.00;;;;;;5054661;28;20195;-74
2022/12/29 05:15:35;;;;;;;7.40;6.60;;;9.70;1.00;;;;;;5053834;28;20907;-73
2022/12/29 05:18:01;;;;;;;6.43;5.90;;;9.80;1.00;;;;;;5054087;28;20577;-73
2022/12/29 05:20:27;;;;;;;7.43;6.00;;;9.80;1.00;;;;;;5053329;28;20217;-74
2022/12/29 05:22:52;;;;;;;8.50;6.80;;;9.80;1.00;;;;;;5054692;28;20182;-70
2022/12/29 05:25:18;;;;;;;5.93;5.43;;;9.80;1.00;;;;;;5052370;28;20197;-73
2022/12/29 05:27:44;;;;;;;7.13;6.20;;;9.80;1.00;;;;;;5054348;28;20249;-73
2022/12/29 05:30:10;;;;;;;6.30;5.83;;;9.80;1.00;;;;;;5054336;28;20169;-73
2022/12/29 05:32:36;;;;;;;5.50;5.10;;;9.90;1.00;;;;;;5054184;28;20656;-74
2022/12/29 05:35:02;;;;;;;5.77;5.37;;;9.90;1.00;;;;;;5052966;28;20397;-73
2022/12/29 05:37:28;;;;;;;13.73;6.07;;;9.80;1.00;;;;;;5054268;28;20484;-73
2022/12/29 05:39:53;;;;;;;7.63;4.90;;;9.80;1.00;;;;;;5054132;28;20224;-74
2022/12/29 05:42:19;;;;;;;5.97;5.37;;;9.80;1.00;;;;;;5054144;28;20177;-74
2022/12/29 05:44:45;;;;;;;6.40;5.90;;;9.80;1.00;;;;;;5053241;28;20692;-75
2022/12/29 05:47:10;;;;;;;4.87;4.37;;;9.80;1.00;;;;;;5052720;28;20281;-74
2022/12/29 05:49:36;;;;;;;7.07;5.70;;;9.70;1.00;;;;;;5053908;28;20200;-75
2022/12/29 05:52:02;;;;;;;5.60;5.10;;;9.70;1.00;;;;;;5053041;28;20800;-74
2022/12/29 05:54:28;;;;;;;5.37;4.20;;;9.70;1.00;;;;;;5053054;28;20195;-74
2022/12/29 05:56:54;;;;;;;5.53;4.77;;;9.70;1.00;;;;;;5053928;28;20178;-75
2022/12/29 05:59:19;;;;;;;4.50;4.20;;;9.70;1.00;;;;;;5053799;28;20381;-73
2022/12/29 06:01:45;;;;;;;5.07;4.63;;;9.80;1.00;;;;;;5053688;28;20173;-75
2022/12/29 06:04:11;;;;;;;4.60;4.20;;;9.80;1.00;;;;;;5053556;28;20226;-76
2022/12/29 06:06:36;;;;;;;4.80;4.40;;;9.80;1.00;;;;;;5052989;28;20213;-74
2022/12/29 06:09:02;;;;;;;4.23;3.83;;;9.80;1.00;;;;;;5053047;28;20592;-73
2022/12/29 06:11:28;;;;;;;4.07;3.80;;;9.80;1.00;;;;;;5053642;28;20180;-75
2022/12/29 06:13:53;;;;;;;4.50;4.20;;;9.80;1.00;;;;;;5053437;28;20164;-76
2022/12/29 06:16:19;;;;;;;3.70;3.50;;;9.80;1.00;;;;;;5052872;28;20180;-74
2022/12/29 06:18:45;;;;;;;3.03;2.80;;;9.80;1.00;;;;;;5053266;28;20560;-75
2022/12/29 06:21:11;;;;;;;3.97;3.67;;;9.80;1.00;;;;;;5052091;28;20180;-74
2022/12/29 06:23:36;;;;;;;4.30;3.70;;;9.80;1.00;;;;;;5053369;28;20194;-75
2022/12/29 06:26:02;;;;;;;3.50;3.30;;;9.80;1.00;;;;;;5050743;28;20202;-74
2022/12/29 06:28:28;;;;;;;3.40;3.20;;;9.80;1.00;;;;;;5053248;28;20179;-75
2022/12/29 06:30:53;;;;;;;3.70;3.40;;;9.80;1.00;;;;;;5053235;28;20676;-75
2022/12/29 06:33:20;;;;;;;4.47;4.07;;;9.70;1.00;;;;;;5052696;28;20167;-73
2022/12/29 06:35:46;;;;;;;3.83;3.53;;;9.70;1.00;;;;;;5052490;28;20196;-69
2022/12/29 06:38:12;;;;;;;4.00;3.80;;;9.70;1.00;;;;;;5053333;28;20407;-70
2022/12/29 06:40:38;;;;;;;4.00;3.80;;;9.80;1.00;;;;;;5053132;28;20528;-70
2022/12/29 06:43:03;;;;;;;4.20;3.90;;;9.80;1.00;;;;;;5052323;28;20394;-71
2022/12/29 06:45:29;;;;;;;4.03;3.73;;;9.80;1.00;;;;;;5052359;28;20203;-71
2022/12/29 06:47:55;;;;;;;3.60;3.30;;;9.80;1.00;;;;;;5052988;28;20198;-71
2022/12/29 06:50:21;;;;;;;4.07;3.77;;;9.80;1.00;;;;;;5053210;28;20554;-71
2022/12/29 06:52:46;;;;;;;4.60;4.30;;;9.80;1.00;;;;;;5052066;28;20179;-71
2022/12/29 06:55:12;;;;;;;5.10;4.10;;;9.80;1.00;;;;;;5052136;28;20201;-71
2022/12/29 06:57:37;;;;;;;4.23;3.83;;;9.80;1.00;;;;;;5052016;28;20176;-71
2022/12/29 07:00:04;;;;;;;4.23;3.93;;;9.80;1.00;;;;;;5051031;28;20216;-71
2022/12/29 07:02:30;;;;;;;4.50;4.10;;;9.80;1.00;;;;;;5052917;28;20270;-71
2022/12/29 07:04:56;;;;;;;4.67;3.83;;;9.90;1.00;;;;;;5051118;28;20993;-71
2022/12/29 07:07:21;;;;;;;4.30;3.90;;;9.90;1.00;;;;;;5052728;28;20208;-70
2022/12/29 07:09:47;;;;;;;6.60;3.87;;;9.90;1.00;;;;;;5051559;28;20231;-71
2022/12/29 07:12:13;;;;;;;5.00;4.60;;;9.90;1.00;;;;;;5051604;28;20184;-70
2022/12/29 07:14:39;;;;;;;5.17;4.43;;;9.90;1.00;;;;;;5052005;28;20185;-71
2022/12/29 07:17:06;;;;;;;3.80;3.60;;;10.00;1.00;;;;;;5051989;28;20175;-73
2022/12/29 07:19:32;;;;;;;4.67;4.20;;;9.90;1.00;;;;;;5052811;28;20423;-71
2022/12/29 07:21:58;;;;;;;4.40;4.10;;;9.90;1.00;;;;;;5052706;28;20912;-71
2022/12/29 07:24:25;;;;;;;4.53;4.20;;;9.90;1.00;;;;;;5051999;28;20483;-72
2022/12/29 07:26:52;;;;;;;4.70;4.30;;;9.90;1.00;;;;;;5051403;28;20222;-72
2022/12/29 07:29:18;;;;;;;3.80;3.50;;;9.90;1.00;;;;;;5052520;28;20881;-71
2022/12/29 07:31:44;;;;;;;5.70;3.77;;;9.90;1.00;;;;;;5052599;28;20843;-72
2022/12/29 07:34:10;;;;;;;3.03;2.83;;;9.90;1.00;;;;;;5052184;28;20425;-71
2022/12/29 07:36:35;;;;;;;9.37;8.00;;;9.90;1.00;;;;;;5050717;28;20586;-72
2022/12/29 07:39:02;;;;;;;4.10;3.80;;;9.80;1.00;;;;;;5051298;28;20793;-72
2022/12/29 07:41:28;;;;;;;4.10;3.70;;;9.80;1.00;;;;;;5052506;28;20535;-72
2022/12/29 07:43:53;;;;;;;4.60;3.57;;;9.90;1.00;;;;;;5052389;28;20498;-71
2022/12/29 07:46:19;;;;;;;3.57;3.27;;;9.80;99.90;;;;;;5054021;28;20201;-71
2022/12/29 07:48:45;;;;;;;9.00;3.53;;;9.90;99.90;;;;;;5056291;28;20578;-70
2022/12/29 07:51:11;;;;;;;5.63;2.67;;;9.90;99.90;;;;;;5056267;28;20256;-71
2022/12/29 07:53:36;;;;;;;3.10;2.80;;;9.90;99.90;;;;;;5056119;28;20173;-71
2022/12/29 07:56:02;;;;;;;3.40;3.10;;;9.90;99.90;;;;;;5055344;28;20408;-71
2022/12/29 07:58:28;;;;;;;3.00;2.80;;;9.90;99.90;;;;;;5056058;28;21280;-71
2022/12/29 08:00:57;;;;;;;2.07;1.97;;;9.90;99.90;;;;;;5056163;28;20578;-70
2022/12/29 08:03:24;;;;;;;3.20;3.00;;;10.00;99.90;;;;;;5055894;28;20550;-72
2022/12/29 08:05:50;;;;;;;6.40;2.43;;;10.00;99.90;;;;;;5055140;28;20460;-71
2022/12/29 08:08:16;;;;;;;3.17;2.97;;;10.00;99.90;;;;;;5054724;28;20409;-70
2022/12/29 08:10:41;;;;;;;3.17;2.80;;;10.00;99.90;;;;;;5055864;28;20173;-71
2022/12/29 08:13:08;;;;;;;5.40;2.80;;;10.00;99.90;;;;;;5055158;28;20171;-71
2022/12/29 08:15:34;;;;;;;2.30;2.20;;;10.00;99.90;;;;;;5053704;28;20261;-73
2022/12/29 08:17:59;;;;;;;2.57;2.37;;;9.90;99.90;;;;;;5055709;28;20407;-70
2022/12/29 08:20:25;;;;;;;5.00;2.60;;;9.90;99.90;;;;;;5055741;28;20187;-71
2022/12/29 08:22:51;;;;;;;2.30;2.10;;;10.00;99.90;;;;;;5054454;28;20261;-71
2022/12/29 08:25:19;;;;;;;3.47;2.43;;;10.00;99.90;;;;;;5053788;28;20285;-70
2022/12/29 08:27:45;;;;;;;2.47;2.27;;;10.00;99.90;;;;;;5055404;28;20192;-72
2022/12/29 08:30:11;;;;;;;4.93;2.40;;;10.00;99.90;;;;;;5055083;28;20379;-71
2022/12/29 08:32:36;;;;;;;2.70;2.17;;;10.00;99.90;;;;;;5055335;28;20636;-71
2022/12/29 08:35:02;;;;;;;2.53;2.33;;;10.00;99.90;;;;;;5053655;28;20438;-70
2022/12/29 08:37:28;;;;;;;1.93;1.80;;;10.00;99.90;;;;;;5055486;28;20222;-70
2022/12/29 08:39:54;;;;;;;2.27;2.03;;;10.00;99.90;;;;;;5054213;28;20447;-71
2022/12/29 08:42:20;;;;;;;2.30;2.10;;;10.00;99.90;;;;;;5055303;28;20615;-70
2022/12/29 08:44:45;;;;;;;3.20;2.20;;;10.00;99.90;;;;;;5054373;28;20216;-70
2022/12/29 08:47:11;;;;;;;6.13;2.80;;;10.00;99.90;;;;;;5053572;28;20296;-72
2022/12/29 08:49:37;;;;;;;2.60;2.20;;;10.00;99.90;;;;;;5054921;28;20539;-71
2022/12/29 08:52:03;;;;;;;2.50;2.13;;;10.00;99.90;;;;;;5054970;28;20812;-71
2022/12/29 08:54:28;;;;;;;3.10;2.40;;;10.10;99.90;;;;;;5053308;28;20203;-71
2022/12/29 08:56:54;;;;;;;4.67;1.73;;;10.00;99.90;;;;;;5053364;28;20417;-70
2022/12/29 08:59:20;;;;;;;2.27;2.17;;;10.10;99.90;;;;;;5053761;28;20205;-71
2022/12/29 09:01:46;;;;;;;2.73;2.53;;;10.00;99.90;;;;;;5054362;28;20189;-70
2022/12/29 09:04:11;;;;;;;2.10;2.00;;;10.10;99.90;;;;;;5054648;28;20203;-72
2022/12/29 09:06:37;;;;;;;2.93;2.63;;;10.10;99.90;;;;;;5052389;28;20606;-70
2022/12/29 09:09:03;;;;;;;2.37;2.17;;;10.10;99.90;;;;;;5053537;28;20253;-72
2022/12/29 09:11:28;;;;;;;3.10;2.33;;;10.20;99.90;;;;;;5054809;28;20200;-71
2022/12/29 09:13:55;;;;;;;2.50;2.30;;;10.20;99.90;;;;;;5054672;28;20176;-70
2022/12/29 09:16:23;;;;;;;2.17;2.07;;;10.10;99.90;;;;;;5052635;28;20664;-72
2022/12/29 09:18:48;;;;;;;3.50;2.27;;;10.10;99.90;;;;;;5053215;28;20473;-71
2022/12/29 09:21:14;;;;;;;3.90;2.70;;;10.10;99.90;;;;;;5054533;28;20382;-70
2022/12/29 09:23:40;;;;;;;2.77;2.57;;;10.20;99.90;;;;;;5054487;28;20719;-71
2022/12/29 09:26:07;;;;;;;6.10;2.00;;;10.10;99.90;;;;;;5052651;28;20212;-70
2022/12/29 09:28:33;;;;;;;2.80;1.93;;;10.10;99.90;;;;;;5054324;28;20481;-70
2022/12/29 09:30:59;;;;;;;2.30;1.90;;;10.00;99.90;;;;;;5054537;28;20523;-70
2022/12/29 09:33:25;;;;;;;5.33;1.83;;;9.90;99.90;;;;;;5054320;28;20433;-70
2022/12/29 09:35:58;;;;;;;4.30;2.00;;;9.90;99.90;;;;;;5053622;28;20459;-72
2022/12/29 09:38:25;;;;;;;1.60;1.50;;;10.00;99.90;;;;;;5054185;28;20378;-72
2022/12/29 09:40:59;;;;;;;3.40;2.20;;;10.00;99.90;;;;;;5054194;28;20567;-70
2022/12/29 09:43:42;;;;;;;4.07;2.00;;;10.10;99.90;;;;;;5053750;28;20377;-71
2022/12/29 09:46:29;;;;;;;4.90;2.37;;;10.10;94.20;;;;;;5053423;28;20396;-70
2022/12/29 09:49:18;;;;;;;15.70;2.07;;;10.10;80.40;;;;;;5054010;28;20390;-70
2022/12/29 09:51:50;;;;;;;1.80;1.70;;;10.10;46.40;;;;;;5054025;28;20444;-71
2022/12/29 09:54:34;;;;;;;2.33;1.97;;;10.10;27.30;;;;;;5052576;28;20416;-71
2022/12/29 09:57:00;;;;;;;5.23;2.20;;;10.10;7.50;;;;;;5053800;28;20410;-71
2022/12/29 09:59:39;;;;;;;14.73;2.80;;;10.10;1.00;;;;;;5053818;28;20488;-70
2022/12/29 10:02:26;;;;;;;7.73;2.30;;;10.10;1.00;;;;;;5053386;28;20163;-72
2022/12/29 10:04:55;;;;;;;10.70;3.37;;;10.20;1.00;;;;;;5051204;28;20489;-71
2022/12/29 10:07:27;;;;;;;6.40;2.33;;;10.20;1.00;;;;;;5051606;28;20498;-70
2022/12/29 10:10:34;;;;;;;2.50;2.30;;;10.30;1.00;;;;;;5053740;28;20365;-71
2022/12/29 10:13:16;;;;;;;7.00;2.30;;;10.20;1.00;;;;;;5052545;28;20764;-72
2022/12/29 10:16:00;;;;;;;8.40;3.30;;;10.20;1.00;;;;;;5052769;28;20419;-70
2022/12/29 10:18:45;;;;;;;2.70;1.87;;;10.20;1.00;;;;;;5053424;28;20915;-75
2022/12/29 10:21:54;;;;;;;3.50;1.50;;;10.20;1.00;;;;;;5052729;28;20404;-70
2022/12/29 10:24:22;;;;;;;3.87;2.00;;;10.30;1.00;;;;;;5050354;28;21270;-71
2022/12/29 10:26:50;;;;;;;2.67;1.90;;;10.40;1.00;;;;;;5052773;28;20484;-73
2022/12/29 10:29:20;;;;;;;3.03;1.80;;;10.40;1.00;;;;;;5053449;28;20765;-70
2022/12/29 10:31:45;;;;;;;8.83;2.30;;;10.40;1.00;;;;;;5052056;28;20734;-70
2022/12/29 10:34:37;;;;;;;4.13;2.00;;;10.40;1.00;;;;;;5053023;28;20410;-70
2022/12/29 10:37:05;;;;;;;3.97;2.07;;;10.30;1.00;;;;;;5051857;28;20189;-70
2022/12/29 10:39:38;;;;;;;3.53;2.20;;;10.30;1.00;;;;;;5052577;28;20408;-70
2022/12/29 10:42:13;;;;;;;10.43;2.37;;;10.40;1.00;;;;;;5053188;28;20413;-70
2022/12/29 10:44:39;;;;;;;2.30;1.90;;;10.40;1.00;;;;;;5051283;28;20440;-70
2022/12/29 10:47:18;;;;;;;5.80;2.00;;;10.50;99.90;;;;;;5052889;28;20425;-70
2022/12/29 10:49:46;;;;;;;2.60;1.93;;;10.50;99.90;;;;;;5053025;28;20470;-69
2022/12/29 10:52:14;;;;;;;2.03;1.67;;;10.50;99.90;;;;;;5053011;28;20378;-69
2022/12/29 10:54:46;;;;;;;3.50;2.00;;;10.50;99.90;;;;;;5051530;28;20395;-70
2022/12/29 10:57:25;;;;;;;3.60;2.13;;;10.60;99.90;;;;;;5052860;28;20494;-68
2022/12/29 10:59:51;;;;;;;4.37;2.03;;;10.50;99.90;;;;;;5053063;28;20401;-69
2022/12/29 11:02:35;;;;;;;3.20;1.90;;;10.50;99.90;;;;;;5052945;28;20418;-67
2022/12/29 11:05:12;;;;;;;4.40;1.70;;;10.50;99.90;;;;;;5052081;28;20190;-69
2022/12/29 11:07:39;;;;;;;2.07;1.87;;;10.50;99.90;;;;;;5052778;28;20430;-69
2022/12/29 11:10:28;;;;;;;4.47;2.00;;;10.50;99.90;;;;;;5052773;28;20435;-70
2022/12/29 11:13:02;;;;;;;2.20;1.53;;;10.50;99.90;;;;;;5052790;28;20364;-71
2022/12/29 11:15:48;;;;;;;2.80;1.73;;;10.50;99.90;;;;;;5050094;28;20935;-70
2022/12/29 11:18:24;;;;;;;4.53;2.90;;;10.50;99.90;;;;;;5052730;28;20408;-69
2022/12/29 11:20:54;;;;;;;3.63;2.00;;;10.50;99.90;;;;;;5056945;28;20876;-71
2022/12/29 11:23:36;;;;;;;6.23;2.67;;;10.40;99.90;;;;;;5056796;28;20379;-69
2022/12/29 11:26:11;;;;;;;3.40;2.13;;;10.30;99.90;;;;;;5055053;28;20388;-70
2022/12/29 11:28:38;;;;;;;4.13;2.10;;;10.30;99.90;;;;;;5056635;28;20419;-70
2022/12/29 11:31:06;;;;;;;11.87;2.80;;;10.20;99.90;;;;;;5056603;28;20454;-71
2022/12/29 11:33:34;;;;;;;7.53;2.70;;;10.10;99.90;;;;;;5055892;28;20411;-70
2022/12/29 11:36:06;;;;;;;6.43;2.27;;;10.10;99.90;;;;;;5054846;28;20439;-69
2022/12/29 11:38:52;;;;;;;5.23;2.47;;;10.10;99.90;;;;;;5056494;28;20405;-70
2022/12/29 11:41:27;;;;;;;4.43;2.00;;;10.10;99.90;;;;;;5056255;28;20403;-69
2022/12/29 11:43:56;;;;;;;12.93;2.30;;;10.00;1.00;;;;;;5055320;28;20380;-69
2022/12/29 11:46:33;;;;;;;9.10;2.70;;;10.00;1.00;;;;;;5055565;28;20471;-70
2022/12/29 11:49:00;;;;;;;3.60;1.60;;;10.00;1.00;;;;;;5056305;28;20483;-68
2022/12/29 11:51:43;;;;;;;6.93;2.13;;;10.00;1.00;;;;;;5055242;28;20887;-70
2022/12/29 11:54:17;;;;;;;2.93;2.07;;;10.00;99.90;;;;;;5056075;28;20823;-71
2022/12/29 11:56:43;;;;;;;5.07;2.83;;;10.00;1.00;;;;;;5056405;28;20411;-70
2022/12/29 11:59:51;;;;;;;2.73;1.70;;;10.00;1.00;;;;;;5055141;28;20865;-69
2022/12/29 12:02:38;;;;;;;6.90;2.80;;;10.00;1.00;;;;;;5053857;28;20577;-69
2022/12/29 12:05:21;;;;;;;4.73;2.87;;;10.00;1.00;;;;;;5053749;28;20437;-71
2022/12/29 12:07:54;;;;;;;9.03;2.43;;;10.00;1.00;;;;;;5055763;28;20814;-70
2022/12/29 12:10:29;;;;;;;2.40;2.20;;;10.10;99.90;;;;;;5053925;28;20391;-68
2022/12/29 12:13:29;;;;;;;2.03;1.93;;;10.20;99.90;;;;;;5055877;28;20405;-69
2022/12/29 12:16:07;;;;;;;5.13;2.73;;;10.20;99.90;;;;;;5055117;28;20421;-71
2022/12/29 12:18:42;;;;;;;2.47;1.93;;;10.10;99.90;;;;;;5054785;28;20426;-70
2022/12/29 12:21:29;;;;;;;5.27;2.70;;;10.00;99.90;;;;;;5055724;28;20369;-71
2022/12/29 12:24:26;;;;;;;6.97;2.27;;;9.90;1.00;;;;;;5054535;28;20413;-71
2022/12/29 12:27:04;;;;;;;3.13;2.37;;;9.80;1.00;;;;;;5054743;28;20453;-69
2022/12/29 12:29:51;;;;;;;5.20;1.70;;;9.80;1.00;;;;;;5055599;28;20432;-72
2022/12/29 12:32:28;;;;;;;7.80;2.50;;;9.80;1.00;;;;;;5054730;28;20423;-68
2022/12/29 12:34:54;;;;;;;2.27;2.00;;;9.80;1.00;;;;;;5053446;28;20408;-69
2022/12/29 12:37:28;;;;;;;6.77;1.90;;;9.90;1.00;;;;;;5054186;28;20424;-71
2022/12/29 12:40:24;;;;;;;6.97;2.30;;;9.90;1.00;;;;;;5055247;28;20262;-68
2022/12/29 12:43:11;;;;;;;8.20;2.27;;;9.90;1.00;;;;;;5055434;28;20384;-68
2022/12/29 12:45:56;;;;;;;5.63;2.77;;;9.80;1.00;;;;;;5052534;28;20448;-69
2022/12/29 12:48:21;;;;;;;5.27;2.20;;;9.70;1.00;;;;;;5055156;28;20461;-69
2022/12/29 12:51:08;;;;;;;4.03;2.27;;;9.70;1.00;;;;;;5055237;28;20388;-69
2022/12/29 12:54:03;;;;;;;5.13;2.20;;;9.60;1.00;;;;;;5055006;28;20171;-69
2022/12/29 12:56:38;;;;;;;4.10;2.03;;;9.60;1.00;;;;;;5054423;28;20388;-69
2022/12/29 12:59:22;;;;;;;5.23;2.33;;;9.50;1.00;;;;;;5054914;28;20444;-71
2022/12/29 13:02:17;;;;;;;3.10;2.00;;;9.40;1.00;;;;;;5053612;28;20406;-69
2022/12/29 13:05:04;;;;;;;7.40;2.80;;;9.40;1.00;;;;;;5052953;28;20503;-72
2022/12/29 13:08:03;;;;;;;2.00;1.90;;;9.40;1.00;;;;;;5054529;28;20531;-72
2022/12/29 13:10:52;;;;;;;3.93;2.13;;;9.40;1.00;;;;;;5054689;28;20406;-72
2022/12/29 13:13:49;;;;;;;9.70;2.50;;;9.30;1.00;;;;;;5054996;28;20374;-74
2022/12/29 13:16:34;;;;;;;7.13;2.10;;;9.30;1.00;;;;;;5053905;28;20398;-73
2022/12/29 13:19:20;;;;;;;4.30;2.57;;;9.30;1.00;;;;;;5054666;28;20406;-74
2022/12/29 13:22:21;;;;;;;3.60;1.90;;;9.20;1.00;;;;;;5054547;28;20787;-74
2022/12/29 13:25:01;;;;;;;3.30;2.27;;;9.20;1.00;;;;;;5053679;28;20846;-71
2022/12/29 13:27:36;;;;;;;8.23;2.40;;;9.10;1.00;;;;;;5054404;28;20445;-70
2022/12/29 13:30:20;;;;;;;2.53;2.33;;;9.10;1.00;;;;;;5054410;28;20407;-69
2022/12/29 13:33:07;;;;;;;3.50;2.57;;;9.00;1.00;;;;;;5054447;28;20451;-67
2022/12/29 13:35:33;;;;;;;4.60;2.20;;;9.10;1.00;;;;;;5053579;28;20460;-67
2022/12/29 13:38:01;;;;;;;3.13;2.23;;;9.10;5.60;;;;;;5054208;28;20432;-69
2022/12/29 13:40:34;;;;;;;5.30;2.43;;;9.00;32.00;;;;;;5054143;28;20254;-71
2022/12/29 13:43:01;;;;;;;1.77;1.67;;;9.00;60.40;;;;;;5053156;28;20463;-74
2022/12/29 13:45:31;;;;;;;2.43;2.20;;;9.00;79.70;;;;;;5053467;28;20479;-69
2022/12/29 13:48:15;;;;;;;2.80;2.33;;;8.90;80.70;;;;;;5054011;28;20481;-67
2022/12/29 13:50:41;;;;;;;4.80;1.90;;;8.90;81.20;;;;;;5054138;28;20929;-71
2022/12/29 13:53:25;;;;;;;3.50;2.10;;;8.90;80.90;;;;;;5054023;28;20390;-69